METAR Data
IDs: Format: Raw Decoded Include TAF

Data at: 2058 UTC 26 May 2019

METAR for:KSGH (Springfield Muni, OH, US)
Text:KSGH 262056Z AUTO 35011KT 10SM CLR 27/20 A3000 RMK AO2 SLP154 T02720200 56016
Temperature: 27.2°C ( 81°F)
Dewpoint: 20.0°C ( 68°F) [RH = 65%]
Pressure (altimeter):30.00 inches Hg (1016.0 mb) [Sea level pressure: 1015.4 mb]
Winds:from the N (350 degrees) at 13 MPH (11 knots; 5.7 m/s)
Visibility:10 or more sm (16+ km)
Ceiling:at least 12,000 feet AGL
Clouds:sky clear below 12,000 feet AGL
QC Flag:automated observation with no human augmentation